Time;durP1;ratioP1;P1;durP2;ratioP2;P2;SDS_P1;SDS_P2;PMS_P1;PMS_P2;Temp;Humidity;BMP_temperature;BMP_pressure;BME280_temperature;BME280_humidity;BME280_pressure;Samples;Min_cycle;Max_cycle;Signal;HPM_P1;HPM_P2
2022/04/14 00:00:14;;;;;;;35.25;23.23;;;;;;;13.50;43.42;100508.28;4869312;28;98136;-89
2022/04/14 00:02:39;;;;;;;37.45;23.00;;;;;;;13.51;43.50;100497.66;4879179;28;102080;-90
2022/04/14 00:05:06;;;;;;;45.72;23.45;;;;;;;13.29;44.08;100483.66;4899072;28;97303;-90
2022/04/14 00:07:31;;;;;;;35.75;23.27;;;;;;;13.31;44.21;100511.69;4900363;28;96973;-89
2022/04/14 00:09:57;;;;;;;36.30;23.90;;;;;;;13.23;43.89;100511.09;4890446;28;96939;-89
2022/04/14 00:12:23;;;;;;;41.67;23.52;;;;;;;13.10;43.86;100488.84;4907440;28;101978;-90
2022/04/14 00:14:48;;;;;;;39.35;24.52;;;;;;;13.22;44.11;100496.22;4886795;28;97734;-90
2022/04/14 00:17:14;;;;;;;43.47;23.98;;;;;;;13.16;44.05;100488.56;4866831;28;96930;-90
2022/04/14 00:19:40;;;;;;;36.53;23.23;;;;;;;13.30;44.08;100501.22;4899976;28;97462;-90
2022/04/14 00:22:06;;;;;;;43.90;26.05;;;;;;;13.10;44.26;100494.97;4883691;28;101308;-90
2022/04/14 00:24:31;;;;;;;43.60;24.58;;;;;;;13.01;44.97;100497.97;4899897;28;97105;-90
2022/04/14 00:26:57;;;;;;;38.88;24.23;;;;;;;13.03;44.23;100501.41;4899877;28;96766;-88
2022/04/14 00:29:22;;;;;;;40.72;24.67;;;;;;;13.08;44.47;100501.22;4868312;28;97162;-89
2022/04/14 00:31:48;;;;;;;38.78;24.75;;;;;;;13.02;44.09;100483.03;4899087;28;98080;-89
2022/04/14 00:34:14;;;;;;;41.67;24.85;;;;;;;12.99;43.98;100491.06;4897577;28;97391;-90
2022/04/14 00:36:40;;;;;;;43.75;25.33;;;;;;;13.01;44.50;100511.16;4883525;28;97067;-89
2022/04/14 00:39:05;;;;;;;39.40;23.73;;;;;;;13.12;44.04;100513.34;4897340;28;97081;-88
2022/04/14 00:41:31;;;;;;;40.17;24.83;;;;;;;13.02;44.62;100507.59;4898925;28;97121;-87
2022/04/14 00:43:56;;;;;;;43.83;24.02;;;;;;;12.95;44.55;100502.66;4882774;28;97980;-87
2022/04/14 00:46:22;;;;;;;35.03;24.13;;;;;;;12.82;45.11;100495.22;4899714;28;96675;-86
2022/04/14 00:48:49;;;;;;;41.50;26.35;;;;;;;12.67;45.26;100487.94;4867155;28;96871;-88
2022/04/14 00:51:15;;;;;;;40.40;24.73;;;;;;;12.75;44.86;100506.09;4867332;28;101940;-90
2022/04/14 00:53:40;;;;;;;40.53;25.73;;;;;;;12.55;44.77;100470.88;4883661;28;101590;-88
2022/04/14 00:56:07;;;;;;;42.13;26.08;;;;;;;12.63;44.96;100492.50;4884208;28;96641;-88
2022/04/14 00:58:34;;;;;;;41.63;24.65;;;;;;;12.69;45.08;100500.13;4895151;28;96815;-88
2022/04/14 01:01:01;;;;;;;39.17;25.73;;;;;;;12.67;45.21;100496.69;4866126;28;101557;-88
2022/04/14 01:03:26;;;;;;;40.92;24.05;;;;;;;12.68;45.07;100505.44;4867151;28;99165;-88
2022/04/14 01:05:53;;;;;;;43.85;25.92;;;;;;;12.74;44.66;100504.34;4883104;28;96863;-88
2022/04/14 01:08:19;;;;;;;43.47;26.00;;;;;;;12.82;44.71;100507.53;4899545;28;96963;-88
2022/04/14 01:10:49;;;;;;;36.88;25.38;;;;;;;12.83;45.03;100499.59;4892509;28;97695;-88
2022/04/14 01:13:16;;;;;;;41.58;25.30;;;;;;;12.79;44.44;100500.63;4898816;28;100878;-88
2022/04/14 01:15:44;;;;;;;42.05;24.83;;;;;;;12.66;44.92;100473.06;4881933;28;96807;-88
2022/04/14 01:18:09;;;;;;;40.78;24.73;;;;;;;12.80;44.20;100499.72;4884309;28;96888;-90
2022/04/14 01:20:35;;;;;;;38.33;24.10;;;;;;;12.60;44.85;100478.59;4899602;28;97828;-87
2022/04/14 01:23:03;;;;;;;45.25;24.23;;;;;;;12.83;44.43;100502.22;4897883;28;97111;-87
2022/04/14 01:25:30;;;;;;;38.15;23.85;;;;;;;12.66;44.25;100476.56;4882662;28;97922;-87
2022/04/14 01:27:55;;;;;;;38.58;22.25;;;;;;;12.78;44.20;100505.97;4866724;28;97000;-87
2022/04/14 01:30:21;;;;;;;40.50;22.73;;;;;;;12.80;44.49;100515.53;4916229;28;98488;-88
2022/04/14 01:32:47;;;;;;;37.20;22.08;;;;;;;12.71;44.33;100502.69;4882149;28;97950;-87
2022/04/14 01:35:13;;;;;;;35.72;21.80;;;;;;;12.68;44.51;100500.19;4898205;28;96887;-88
2022/04/14 01:37:39;;;;;;;41.85;20.77;;;;;;;12.69;44.63;100513.31;4898851;28;96958;-88
2022/04/14 01:40:05;;;;;;;33.50;22.10;;;;;;;12.64;44.46;100506.50;4882469;28;100979;-88
2022/04/14 01:42:31;;;;;;;38.40;20.65;;;;;;;12.58;44.79;100494.44;4879353;28;101641;-87
2022/04/14 01:44:57;;;;;;;34.63;21.02;;;;;;;12.61;44.64;100511.91;4879569;28;96709;-86
2022/04/14 01:47:22;;;;;;;36.38;21.13;;;;;;;12.59;45.44;100495.28;4879474;28;97144;-88
2022/04/14 01:49:48;;;;;;;39.10;21.33;;;;;;;12.60;44.81;100497.03;4878650;28;100641;-88
2022/04/14 01:52:13;;;;;;;35.63;21.95;;;;;;;12.44;44.47;100476.53;4879432;28;101854;-89
2022/04/14 01:54:39;;;;;;;34.20;20.92;;;;;;;12.27;44.92;100449.16;4863899;28;96821;-88
2022/04/14 01:57:05;;;;;;;34.30;21.23;;;;;;;12.66;45.01;100494.16;4893861;28;96917;-89
2022/04/14 01:59:30;;;;;;;37.70;20.95;;;;;;;12.34;44.86;100485.72;4895006;28;100318;-88
2022/04/14 02:01:56;;;;;;;37.38;21.27;;;;;;;12.50;45.24;100493.88;4878746;28;101095;-87
2022/04/14 02:04:22;;;;;;;37.95;22.50;;;;;;;12.39;45.25;100489.06;4879472;28;96851;-88
2022/04/14 02:06:47;;;;;;;38.33;20.90;;;;;;;12.30;44.97;100489.38;4896104;28;96833;-88
2022/04/14 02:09:12;;;;;;;35.65;21.33;;;;;;;12.29;45.63;100482.41;4878717;28;101122;-88
2022/04/14 02:11:38;;;;;;;38.28;21.83;;;;;;;12.43;45.12;100489.78;4894373;28;98456;-88
2022/04/14 02:14:04;;;;;;;33.17;20.30;;;;;;;12.49;44.84;100491.31;4878594;28;96734;-88
2022/04/14 02:16:29;;;;;;;38.38;22.50;;;;;;;12.17;45.57;100483.75;4879583;28;96879;-87
2022/04/14 02:18:55;;;;;;;40.78;21.40;;;;;;;12.13;45.44;100474.25;4894273;28;98532;-87
2022/04/14 02:21:20;;;;;;;36.63;21.25;;;;;;;12.20;45.45;100488.88;4879356;28;97770;-88
2022/04/14 02:23:46;;;;;;;43.00;22.52;;;;;;;12.21;45.19;100473.94;4895182;28;96633;-87
2022/04/14 02:26:13;;;;;;;38.95;22.92;;;;;;;12.04;45.60;100465.84;4879676;28;96761;-85
2022/04/14 02:28:38;;;;;;;38.58;22.48;;;;;;;12.13;44.83;100461.09;4892517;28;98189;-88
2022/04/14 02:31:04;;;;;;;36.38;21.80;;;;;;;12.19;45.49;100483.69;4899368;28;101689;-84
2022/04/14 02:33:29;;;;;;;39.20;21.40;;;;;;;12.15;45.77;100476.81;4909669;28;96509;-88
2022/04/14 02:35:55;;;;;;;40.15;22.70;;;;;;;12.35;45.10;100476.91;4882790;28;96749;-85
2022/04/14 02:38:21;;;;;;;38.95;22.08;;;;;;;12.20;45.65;100464.34;4898156;28;98316;-88
2022/04/14 02:40:46;;;;;;;39.45;22.67;;;;;;;12.22;45.63;100471.28;4894805;28;97462;-87
2022/04/14 02:43:12;;;;;;;35.58;22.80;;;;;;;12.10;45.50;100449.81;4879352;28;98630;-88
2022/04/14 02:45:37;;;;;;;37.25;22.65;;;;;;;12.20;45.77;100459.94;4874514;28;96876;-88
2022/04/14 02:48:03;;;;;;;41.95;23.35;;;;;;;12.33;45.33;100465.56;4862366;28;100872;-88
2022/04/14 02:50:28;;;;;;;40.65;23.60;;;;;;;12.33;45.21;100462.94;4863619;28;101116;-87
2022/04/14 02:52:54;;;;;;;39.95;23.70;;;;;;;12.19;45.36;100460.00;4846452;28;96851;-88
2022/04/14 02:55:20;;;;;;;39.00;23.73;;;;;;;12.09;45.50;100462.13;4879651;28;97650;-87
2022/04/14 02:57:47;;;;;;;43.40;23.67;;;;;;;11.99;45.75;100466.03;4878046;28;98621;-86
2022/04/14 03:00:14;;;;;;;43.90;22.92;;;;;;;12.00;45.59;100470.38;4879244;28;97636;-88
2022/04/14 03:02:39;;;;;;;36.85;21.50;;;;;;;12.04;45.17;100473.72;4846558;28;96721;-87
2022/04/14 03:05:06;;;;;;;34.17;21.60;;;;;;;11.87;45.22;100462.09;4847033;28;98654;-88
2022/04/14 03:07:32;;;;;;;36.28;20.95;;;;;;;11.85;45.97;100481.44;4846953;28;101353;-87
2022/04/14 03:09:58;;;;;;;40.17;21.05;;;;;;;11.75;46.08;100439.69;4878489;28;98500;-87
2022/04/14 03:12:24;;;;;;;42.45;22.45;;;;;;;12.04;45.39;100469.31;4860117;29;96807;-86
2022/04/14 03:14:50;;;;;;;36.55;22.83;;;;;;;12.01;45.89;100474.69;4861625;28;97679;-88
2022/04/14 03:17:16;;;;;;;38.20;22.50;;;;;;;12.00;45.42;100475.63;4863017;28;97575;-87
2022/04/14 03:19:41;;;;;;;41.85;22.70;;;;;;;11.74;45.77;100423.97;4879057;28;98997;-88
2022/04/14 03:22:07;;;;;;;41.88;22.02;;;;;;;11.92;45.94;100467.16;4859221;29;96956;-88
2022/04/14 03:24:33;;;;;;;47.97;23.85;;;;;;;12.02;45.81;100467.69;4875882;28;96943;-88
2022/04/14 03:26:58;;;;;;;44.20;22.45;;;;;;;11.91;45.96;100455.78;4860684;28;101237;-88
2022/04/14 03:29:24;;;;;;;42.90;22.92;;;;;;;11.67;45.99;100438.25;4877640;28;101576;-88
2022/04/14 03:31:49;;;;;;;41.17;23.13;;;;;;;11.65;45.94;100445.34;4862830;28;97294;-88
2022/04/14 03:34:15;;;;;;;45.63;24.23;;;;;;;11.46;46.44;100458.28;4862280;28;96893;-87
2022/04/14 03:36:40;;;;;;;43.15;22.48;;;;;;;10.95;46.80;100425.03;4878767;28;97565;-87
2022/04/14 03:39:06;;;;;;;47.00;23.67;;;;;;;10.95;47.41;100446.88;4878084;28;97809;-87
2022/04/14 03:41:32;;;;;;;45.80;23.52;;;;;;;10.82;47.56;100451.69;4876989;28;96659;-87
2022/04/14 03:43:57;;;;;;;34.10;21.73;;;;;;;10.94;47.09;100442.56;4880351;28;97346;-87
2022/04/14 03:46:23;;;;;;;41.42;22.25;;;;;;;10.90;47.15;100421.69;4880934;28;98624;-88
2022/04/14 03:48:49;;;;;;;42.45;23.48;;;;;;;10.86;47.15;100420.94;4881608;28;100863;-88
2022/04/14 03:51:15;;;;;;;43.08;22.27;;;;;;;11.06;46.76;100444.75;4880875;28;96734;-89
2022/04/14 03:53:41;;;;;;;41.78;23.65;;;;;;;10.96;47.28;100445.13;4884229;28;97186;-87
2022/04/14 03:56:07;;;;;;;38.78;21.88;;;;;;;10.72;47.50;100431.88;4899334;28;98172;-90
2022/04/14 03:58:32;;;;;;;39.13;22.33;;;;;;;10.96;47.26;100437.22;4899894;28;100827;-90
2022/04/14 04:00:58;;;;;;;39.08;23.83;;;;;;;10.75;47.45;100423.06;4899959;28;98365;-87
2022/04/14 04:03:23;;;;;;;43.67;23.38;;;;;;;10.94;47.17;100428.53;4895935;28;96840;-90
2022/04/14 04:05:49;;;;;;;45.33;22.52;;;;;;;10.97;47.39;100433.72;4883957;28;98100;-89
2022/04/14 04:08:14;;;;;;;43.75;23.23;;;;;;;10.92;47.20;100423.34;4899988;28;98597;-89
2022/04/14 04:10:40;;;;;;;46.65;24.45;;;;;;;10.88;47.76;100433.13;4916227;28;96664;-89
2022/04/14 04:13:06;;;;;;;43.38;24.05;;;;;;;11.08;47.28;100445.56;4885880;28;97016;-89
2022/04/14 04:15:31;;;;;;;42.05;22.88;;;;;;;11.18;47.35;100450.50;4894940;28;98156;-89
2022/04/14 04:17:57;;;;;;;42.00;23.65;;;;;;;11.13;47.13;100448.03;4880504;28;100539;-89
2022/04/14 04:20:23;;;;;;;41.03;23.45;;;;;;;11.15;47.03;100453.25;4881031;28;96713;-88
2022/04/14 04:22:48;;;;;;;41.22;23.90;;;;;;;11.07;47.03;100453.50;4876145;28;98124;-84
2022/04/14 04:25:14;;;;;;;44.75;23.77;;;;;;;11.11;46.87;100441.97;4884594;28;98689;-87
2022/04/14 04:27:40;;;;;;;36.88;22.38;;;;;;;11.11;47.11;100447.22;4882370;28;98464;-88
2022/04/14 04:30:06;;;;;;;43.80;23.02;;;;;;;11.19;46.92;100444.34;4872255;28;96735;-89
2022/04/14 04:32:35;;;;;;;42.70;23.95;;;;;;;11.13;47.17;100434.88;4897194;28;96986;-88
2022/04/14 04:35:02;;;;;;;40.67;23.65;;;;;;;11.20;47.28;100432.91;4868682;28;101022;-89
2022/04/14 04:37:28;;;;;;;38.72;22.70;;;;;;;11.13;47.07;100431.41;4851699;28;101922;-89
2022/04/14 04:39:54;;;;;;;41.55;23.15;;;;;;;11.28;47.12;100434.34;4863665;28;96711;-89
2022/04/14 04:42:19;;;;;;;41.22;22.85;;;;;;;11.27;46.60;100416.03;4875025;28;97386;-88
2022/04/14 04:44:45;;;;;;;40.00;22.42;;;;;;;11.37;46.84;100424.44;4883723;28;98454;-88
2022/04/14 04:47:11;;;;;;;45.70;23.63;;;;;;;11.29;46.59;100438.72;4874394;28;101230;-89
2022/04/14 04:49:36;;;;;;;38.90;21.58;;;;;;;11.29;47.02;100440.50;4866864;28;96863;-89
2022/04/14 04:52:02;;;;;;;44.85;23.92;;;;;;;11.20;46.92;100438.16;4863577;28;96836;-89
2022/04/14 04:54:28;;;;;;;36.63;21.38;;;;;;;11.23;46.99;100443.34;4882546;28;98126;-88
2022/04/14 04:56:53;;;;;;;42.55;22.27;;;;;;;11.20;46.93;100436.41;4866879;28;101655;-87
2022/04/14 04:59:19;;;;;;;41.42;22.25;;;;;;;11.33;46.87;100436.81;4879989;28;96886;-87
2022/04/14 05:01:44;;;;;;;43.75;23.70;;;;;;;11.49;46.26;100432.75;4879195;28;98450;-88
2022/04/14 05:04:11;;;;;;;37.80;21.05;;;;;;;11.44;47.17;100434.69;4881287;28;101196;-88
2022/04/14 05:06:40;;;;;;;40.17;22.88;;;;;;;11.55;46.88;100443.03;4863395;28;101043;-88
2022/04/14 05:09:06;;;;;;;37.67;20.67;;;;;;;11.53;47.07;100441.38;4897779;28;97531;-88
2022/04/14 05:11:32;;;;;;;38.78;23.63;;;;;;;11.62;46.65;100440.19;4883124;28;98026;-88
2022/04/14 05:13:57;;;;;;;33.60;21.40;;;;;;;11.61;46.61;100443.75;4865356;28;101641;-88
2022/04/14 05:16:23;;;;;;;38.92;21.08;;;;;;;11.53;46.65;100430.88;4898774;28;98255;-88
2022/04/14 05:18:50;;;;;;;42.38;23.02;;;;;;;11.59;46.64;100456.09;4882108;28;97308;-88
2022/04/14 05:21:16;;;;;;;39.47;21.90;;;;;;;11.60;46.77;100458.63;4867208;28;97074;-88
2022/04/14 05:23:41;;;;;;;38.45;22.58;;;;;;;11.67;46.57;100447.00;4882496;28;101698;-88
2022/04/14 05:26:07;;;;;;;37.95;22.02;;;;;;;11.87;46.16;100466.47;4886489;28;100697;-88
2022/04/14 05:28:32;;;;;;;34.63;21.13;;;;;;;11.81;46.20;100446.50;4882808;28;96860;-89
2022/04/14 05:30:58;;;;;;;37.45;21.77;;;;;;;11.74;46.04;100450.25;4897392;28;97341;-88
2022/04/14 05:33:24;;;;;;;43.53;22.08;;;;;;;11.74;46.95;100451.09;4904949;28;98517;-88
2022/04/14 05:35:49;;;;;;;42.45;22.00;;;;;;;11.91;46.38;100453.16;4880344;28;98237;-88
2022/04/14 05:38:16;;;;;;;37.10;21.27;;;;;;;11.83;46.37;100418.34;4881783;28;96803;-88
2022/04/14 05:40:43;;;;;;;41.65;23.30;;;;;;;12.11;45.93;100428.72;4875790;28;98277;-86
2022/04/14 05:43:20;;;;;;;39.38;21.38;;;;;;;12.27;46.08;100452.66;4873977;28;100496;-88
2022/04/14 05:45:47;;;;;;;37.72;21.50;;;;;;;12.38;46.24;100453.09;4867683;28;101205;-88
2022/04/14 05:48:14;;;;;;;36.45;21.92;;;;;;;12.41;45.93;100436.31;4878819;28;96913;-89
2022/04/14 05:50:43;;;;;;;40.17;22.23;;;;;;;12.81;45.59;100467.19;4880722;28;96921;-88
2022/04/14 05:53:09;;;;;;;44.35;23.35;;;;;;;13.09;45.18;100463.41;4864355;28;100510;-87
2022/04/14 05:55:35;;;;;;;37.25;22.35;;;;;;;13.28;44.82;100460.88;4867713;28;98382;-88
2022/04/14 05:58:04;;;;;;;38.28;21.17;;;;;;;13.32;45.34;100463.31;4882622;28;98582;-89
2022/04/14 06:00:35;;;;;;;40.70;21.52;;;;;;;13.31;45.63;100458.94;4898940;28;96961;-89
2022/04/14 06:03:00;;;;;;;38.85;21.55;;;;;;;13.31;45.48;100460.75;4872117;28;102144;-89
2022/04/14 06:05:27;;;;;;;41.50;21.20;;;;;;;13.52;45.43;100449.25;4870903;28;96756;-89
2022/04/14 06:07:53;;;;;;;39.97;21.23;;;;;;;13.77;45.04;100458.72;4894527;28;96903;-87
2022/04/14 06:10:19;;;;;;;35.33;21.33;;;;;;;13.84;45.02;100440.81;4899851;28;96765;-88
2022/04/14 06:12:45;;;;;;;37.88;21.08;;;;;;;14.11;44.89;100463.31;4907562;28;98499;-84
2022/04/14 06:15:10;;;;;;;39.70;20.45;;;;;;;14.33;45.05;100462.31;4894661;28;97382;-88
2022/04/14 06:17:36;;;;;;;32.55;20.25;;;;;;;14.42;44.51;100462.72;4848099;28;96827;-87
2022/04/14 06:20:03;;;;;;;36.75;20.45;;;;;;;14.59;44.73;100455.81;4865103;28;97874;-85
2022/04/14 06:22:29;;;;;;;36.97;20.20;;;;;;;14.79;43.77;100457.47;4874999;28;100405;-84
2022/04/14 06:24:58;;;;;;;32.22;20.90;;;;;;;15.19;43.71;100463.41;4864080;28;101042;-87
2022/04/14 06:27:24;;;;;;;32.00;18.63;;;;;;;15.38;43.72;100459.72;4887282;28;98003;-86
2022/04/14 06:29:49;;;;;;;32.72;19.27;;;;;;;15.64;42.77;100457.50;4862259;28;97019;-86
2022/04/14 06:32:15;;;;;;;32.55;18.40;;;;;;;15.87;42.71;100453.69;4862106;28;101555;-85
2022/04/14 06:34:40;;;;;;;34.80;19.33;;;;;;;16.16;41.97;100462.69;4881335;28;96963;-86
2022/04/14 06:37:06;;;;;;;28.80;18.33;;;;;;;16.33;41.53;100448.50;4863109;28;96932;-87
2022/04/14 06:39:31;;;;;;;30.95;17.95;;;;;;;16.49;41.47;100457.31;4881814;28;97294;-86
2022/04/14 06:41:57;;;;;;;29.33;17.05;;;;;;;16.83;40.89;100457.22;4877665;28;97987;-86
2022/04/14 06:44:22;;;;;;;23.40;15.00;;;;;;;17.13;40.61;100452.78;4862579;28;101413;-85
2022/04/14 06:46:48;;;;;;;27.17;16.88;;;;;;;17.47;40.02;100445.44;4878604;28;96732;-85
2022/04/14 06:49:13;;;;;;;24.60;16.48;;;;;;;17.73;39.76;100435.88;4862335;28;97053;-88
2022/04/14 06:51:39;;;;;;;23.75;15.88;;;;;;;17.99;39.42;100449.34;4879156;28;98039;-85
2022/04/14 06:54:04;;;;;;;25.05;15.50;;;;;;;18.00;38.97;100440.44;4877865;28;101179;-89
2022/04/14 06:56:30;;;;;;;19.48;14.02;;;;;;;17.92;39.07;100442.72;4878889;28;97290;-86
2022/04/14 06:58:55;;;;;;;22.92;15.82;;;;;;;17.96;39.18;100437.13;4871295;28;97747;-83
2022/04/14 07:01:23;;;;;;;30.83;15.93;;;;;;;18.26;39.01;100441.44;4870206;28;101575;-88
2022/04/14 07:03:49;;;;;;;28.92;15.45;;;;;;;18.66;38.53;100438.84;4862544;28;100431;-87
2022/04/14 07:06:14;;;;;;;24.60;14.52;;;;;;;19.00;38.43;100433.03;4877129;28;96972;-84
2022/04/14 07:08:40;;;;;;;22.63;14.88;;;;;;;19.00;37.55;100433.03;4852597;28;96914;-82
2022/04/14 07:11:06;;;;;;;23.55;14.55;;;;;;;19.18;37.80;100430.06;4859213;28;102154;-86
2022/04/14 07:13:31;;;;;;;24.08;13.93;;;;;;;19.50;37.51;100427.84;4878668;28;100143;-81
2022/04/14 07:15:59;;;;;;;26.80;15.85;;;;;;;19.85;36.88;100425.41;4864992;28;96735;-85
2022/04/14 07:18:26;;;;;;;21.85;15.05;;;;;;;19.96;36.82;100421.97;4881855;28;96867;-82
2022/04/14 07:20:52;;;;;;;25.77;14.63;;;;;;;20.19;37.01;100425.66;4898266;28;98184;-77
2022/04/14 07:23:18;;;;;;;24.73;15.90;;;;;;;20.41;36.86;100424.94;4896375;28;98377;-79
2022/04/14 07:25:44;;;;;;;21.90;14.60;;;;;;;20.58;36.53;100421.91;4880655;28;97115;-76
2022/04/14 07:28:10;;;;;;;17.90;12.70;;;;;;;20.77;36.34;100434.72;4880610;28;96850;-77
2022/04/14 07:30:38;;;;;;;18.65;12.70;;;;;;;20.91;36.24;100419.47;4876135;28;101283;-80
2022/04/14 07:33:05;;;;;;;20.17;11.57;;;;;;;21.06;35.67;100421.00;4894528;28;97773;-78
2022/04/14 07:35:32;;;;;;;16.65;11.73;;;;;;;20.93;35.84;100420.22;4881235;28;96659;-82
2022/04/14 07:37:58;;;;;;;18.25;11.57;;;;;;;20.92;35.88;100427.38;4880073;28;97101;-86
2022/04/14 07:40:25;;;;;;;19.55;12.23;;;;;;;21.03;35.78;100426.56;4881702;28;101654;-77
2022/04/14 07:42:50;;;;;;;18.85;11.32;;;;;;;21.26;35.05;100416.78;4883700;28;101037;-79
2022/04/14 07:45:17;;;;;;;17.30;11.70;;;;;;;21.46;35.01;100421.47;4866757;28;97652;-83
2022/04/14 07:47:44;;;;;;;16.85;11.50;;;;;;;21.61;35.03;100413.22;4867728;28;97053;-81
2022/04/14 07:50:21;;;;;;;17.85;11.98;;;;;;;21.65;34.73;100428.06;4881365;28;101728;-80
2022/04/14 07:52:49;;;;;;;14.90;10.25;;;;;;;21.80;34.95;100428.66;4873813;28;101277;-80
2022/04/14 07:55:20;;;;;;;16.77;11.02;;;;;;;21.87;34.51;100430.69;4883136;28;98087;-82
2022/04/14 07:57:45;;;;;;;16.83;10.65;;;;;;;22.00;34.37;100424.41;4885250;28;96925;-84
2022/04/14 08:00:12;;;;;;;17.13;10.73;;;;;;;22.29;34.01;100436.28;4860179;28;101225;-84
2022/04/14 08:02:50;;;;;;;14.38;10.07;;;;;;;22.47;33.67;100428.59;4881708;28;101720;-81
2022/04/14 08:05:16;;;;;;;15.63;10.77;;;;;;;22.58;33.52;100423.19;4882487;28;97185;-81
2022/04/14 08:07:42;;;;;;;15.55;10.07;;;;;;;22.73;33.27;100429.09;4867090;28;97353;-81
2022/04/14 08:10:08;;;;;;;18.10;11.18;;;;;;;23.11;32.65;100422.38;4889382;28;100985;-81
2022/04/14 08:12:33;;;;;;;18.20;10.23;;;;;;;23.02;32.45;100410.63;4885001;28;102218;-80
2022/04/14 08:14:59;;;;;;;12.30;9.10;;;;;;;23.32;32.14;100413.50;4872000;28;96804;-80
2022/04/14 08:17:25;;;;;;;16.23;9.20;;;;;;;23.48;31.35;100416.56;4851837;28;97492;-76
2022/04/14 08:19:50;;;;;;;17.05;8.65;;;;;;;23.48;31.37;100403.16;4896991;28;98618;-77
2022/04/14 08:22:16;;;;;;;12.55;8.73;;;;;;;23.47;31.23;100418.38;4878988;28;100902;-77
2022/04/14 08:24:43;;;;;;;10.57;7.68;;;;;;;23.66;32.48;100411.41;4895719;28;97378;-78
2022/04/14 08:27:10;;;;;;;12.07;7.50;;;;;;;23.77;30.82;100394.44;4895300;28;96938;-82
2022/04/14 08:29:36;;;;;;;11.95;6.85;;;;;;;24.26;29.63;100406.13;4879871;28;97600;-76
2022/04/14 08:32:01;;;;;;;8.98;6.35;;;;;;;24.17;29.14;100406.00;4895912;28;97941;-79
2022/04/14 08:34:27;;;;;;;8.95;6.57;;;;;;;24.28;28.92;100406.84;4863665;28;97148;-78
2022/04/14 08:36:53;;;;;;;9.02;6.10;;;;;;;24.53;28.35;100405.50;4888591;28;97262;-77
2022/04/14 08:39:19;;;;;;;9.68;5.70;;;;;;;24.42;27.62;100400.22;4876358;28;101091;-81
2022/04/14 08:41:50;;;;;;;9.82;6.20;;;;;;;24.23;27.98;100401.03;4879577;28;100881;-82
2022/04/14 08:44:21;;;;;;;12.52;6.45;;;;;;;24.65;27.57;100404.38;4882086;28;97445;-82
2022/04/14 08:46:47;;;;;;;9.45;5.90;;;;;;;25.01;27.46;100392.03;4863200;28;96935;-82
2022/04/14 08:49:16;;;;;;;10.23;5.00;;;;;;;25.29;27.13;100389.50;4881176;28;100885;-82
2022/04/14 08:51:42;;;;;;;9.18;5.35;;;;;;;25.74;26.79;100384.25;4863626;28;101028;-82
2022/04/14 08:54:09;;;;;;;8.02;5.07;;;;;;;25.51;26.52;100378.41;4882528;28;96971;-82
2022/04/14 08:56:35;;;;;;;8.38;5.28;;;;;;;25.34;26.15;100395.28;4882274;28;97056;-82
2022/04/14 08:59:00;;;;;;;7.63;5.18;;;;;;;25.42;26.31;100368.50;4881510;28;100931;-82
2022/04/14 09:01:27;;;;;;;8.00;4.78;;;;;;;25.38;26.52;100377.03;4881882;28;97943;-84
2022/04/14 09:03:57;;;;;;;9.15;4.70;;;;;;;25.63;26.57;100371.00;4897875;28;97241;-83
2022/04/14 09:06:23;;;;;;;7.27;4.77;;;;;;;26.34;26.62;100386.44;4881652;28;97544;-81
2022/04/14 09:08:48;;;;;;;9.82;5.25;;;;;;;26.50;25.29;100387.63;4881129;28;100972;-82
2022/04/14 09:11:14;;;;;;;7.32;5.35;;;;;;;26.86;25.27;100388.47;4865365;28;101334;-83
2022/04/14 09:13:43;;;;;;;6.20;4.97;;;;;;;26.99;24.73;100388.06;4887790;28;97294;-84
2022/04/14 09:16:09;;;;;;;8.48;4.70;;;;;;;27.33;24.26;100384.63;4891510;28;97449;-83
2022/04/14 09:18:35;;;;;;;6.40;4.47;;;;;;;27.69;24.23;100380.78;4876795;28;97532;-85
2022/04/14 09:21:05;;;;;;;6.82;4.80;;;;;;;28.07;24.04;100377.72;4864489;28;101748;-82
2022/04/14 09:23:31;;;;;;;13.48;5.28;;;;;;;28.41;23.48;100383.03;4898402;28;96917;-81
2022/04/14 09:26:03;;;;;;;8.52;5.30;;;;;;;28.74;23.23;100380.38;4867015;28;96995;-82
2022/04/14 09:28:28;;;;;;;9.05;4.68;;;;;;;29.12;23.11;100381.59;4915976;28;97541;-79
2022/04/14 09:31:04;;;;;;;9.38;5.05;;;;;;;29.53;22.71;100370.69;4898587;28;97706;-81
2022/04/14 09:33:43;;;;;;;10.60;5.93;;;;;;;29.18;22.46;100358.47;4901240;28;96793;-80
2022/04/14 09:36:17;;;;;;;10.10;5.47;;;;;;;28.96;22.60;100350.00;4851248;28;96990;-82
2022/04/14 09:38:56;;;;;;;9.57;5.53;;;;;;;28.74;22.76;100377.69;4897510;28;98354;-81
2022/04/14 09:41:32;;;;;;;8.63;4.90;;;;;;;28.94;23.64;100362.00;4878988;28;100643;-81
2022/04/14 09:43:59;;;;;;;7.00;4.95;;;;;;;28.54;23.42;100353.75;4905839;28;96928;-81
2022/04/14 09:46:25;;;;;;;9.13;5.75;;;;;;;28.29;23.05;100355.53;4888444;28;97531;-81
2022/04/14 09:49:05;;;;;;;7.40;4.60;;;;;;;27.74;23.45;100364.09;4866512;28;101777;-82
2022/04/14 09:51:31;;;;;;;5.45;4.18;;;;;;;27.39;23.54;100349.78;4891696;28;102047;-81
2022/04/14 09:54:13;;;;;;;8.32;4.05;;;;;;;27.51;23.73;100353.06;4883131;28;97132;-81
2022/04/14 09:56:52;;;;;;;6.35;4.18;;;;;;;27.21;23.86;100338.25;4899174;28;96752;-82
2022/04/14 09:59:22;;;;;;;7.13;4.10;;;;;;;27.62;23.77;100352.78;4881136;28;100440;-82
2022/04/14 10:01:49;;;;;;;11.05;5.05;;;;;;;27.53;24.02;100348.34;4880973;28;101016;-82
2022/04/14 10:04:35;;;;;;;8.82;4.85;;;;;;;27.44;23.97;100341.25;4866288;28;96927;-76
2022/04/14 10:07:06;;;;;;;14.23;4.97;;;;;;;27.38;24.44;100345.41;4866435;28;96850;-79
2022/04/14 10:09:34;;;;;;;7.85;5.55;;;;;;;26.68;24.78;100339.19;4881715;28;101804;-76
2022/04/14 10:11:59;;;;;;;8.75;4.70;;;;;;;26.36;25.31;100344.09;4865736;28;101265;-76
2022/04/14 10:14:25;;;;;;;5.35;4.43;;;;;;;26.08;25.56;100334.41;4880306;28;97169;-76
2022/04/14 10:16:51;;;;;;;8.10;4.88;;;;;;;25.93;25.75;100317.94;4882687;28;97059;-76
2022/04/14 10:19:18;;;;;;;11.40;5.10;;;;;;;25.75;25.85;100342.06;4865401;28;101053;-78
2022/04/14 10:21:44;;;;;;;8.85;5.28;;;;;;;25.50;26.46;100319.41;4866055;28;101660;-76
2022/04/14 10:24:11;;;;;;;9.25;4.95;;;;;;;25.80;26.58;100333.53;4881086;28;96880;-86
2022/04/14 10:26:37;;;;;;;5.30;4.30;;;;;;;25.92;25.95;100338.59;4882214;28;96924;-80
2022/04/14 10:29:06;;;;;;;7.43;4.90;;;;;;;25.65;26.17;100317.91;4893896;28;97484;-80
2022/04/14 10:31:35;;;;;;;8.40;4.47;;;;;;;25.77;26.27;100318.56;4890397;28;98237;-80
2022/04/14 10:34:04;;;;;;;6.43;4.25;;;;;;;25.89;26.76;100330.84;4882079;28;97276;-81
2022/04/14 10:36:41;;;;;;;6.60;4.65;;;;;;;25.97;26.82;100322.00;4881660;28;97431;-80
2022/04/14 10:39:10;;;;;;;7.35;4.60;;;;;;;25.87;26.67;100310.47;4888365;28;98148;-80
2022/04/14 10:41:39;;;;;;;8.43;4.93;;;;;;;25.51;26.63;100327.34;4897191;28;98370;-80
2022/04/14 10:44:05;;;;;;;6.65;4.30;;;;;;;25.26;26.86;100323.47;4866161;28;96987;-81
2022/04/14 10:46:41;;;;;;;7.25;5.03;;;;;;;25.20;27.06;100326.75;4881532;28;97354;-80
2022/04/14 10:49:14;;;;;;;8.40;4.40;;;;;;;25.01;27.26;100310.66;4868980;28;101529;-81
2022/04/14 10:51:40;;;;;;;6.65;4.10;;;;;;;25.10;27.67;100325.03;4885148;28;97601;-80
2022/04/14 10:54:09;;;;;;;6.97;3.88;;;;;;;24.93;27.18;100311.41;4869315;28;97096;-82
2022/04/14 10:56:34;;;;;;;6.35;4.15;;;;;;;24.69;26.66;100316.38;4885087;28;96945;-81
2022/04/14 10:59:11;;;;;;;7.22;4.18;;;;;;;24.35;27.89;100312.28;4884837;28;101528;-81
2022/04/14 11:01:46;;;;;;;6.50;4.70;;;;;;;24.25;27.33;100319.47;4885694;28;98751;-81
2022/04/14 11:04:34;;;;;;;5.68;4.03;;;;;;;24.11;28.24;100318.03;4900613;28;97218;-91
2022/04/14 11:07:13;;;;;;;6.85;3.83;;;;;;;23.99;28.29;100316.47;4885502;28;96846;-81
2022/04/14 11:09:42;;;;;;;9.68;4.05;;;;;;;24.03;28.86;100315.22;4896114;28;98146;-81